Time;durP1;ratioP1;P1;durP2;ratioP2;P2;SDS_P1;SDS_P2;PMS_P1;PMS_P2;Temp;Humidity;BMP_temperature;BMP_pressure;BME280_temperature;BME280_humidity;BME280_pressure;Samples;Min_cycle;Max_cycle;Signal;HPM_P1;HPM_P2
2022/09/06 00:01:12;;;;;;;20.57;9.87;;;;;;;13.31;57.93;101230.84;124860;1098;102883;-76
2022/09/06 00:03:46;;;;;;;21.37;9.93;;;;;;;13.28;57.86;101238.63;124855;1098;104163;-76
2022/09/06 00:06:19;;;;;;;24.23;9.53;;;;;;;13.24;57.97;101238.46;124883;1099;104163;-75
2022/09/06 00:08:50;;;;;;;21.60;9.55;;;;;;;13.22;58.24;101238.41;124883;1099;102880;-76
2022/09/06 00:11:22;;;;;;;23.40;10.13;;;;;;;13.20;58.79;101239.18;124869;1098;104178;-76
2022/09/06 00:13:53;;;;;;;19.47;9.60;;;;;;;13.15;57.82;101236.41;124845;1099;104198;-76
2022/09/06 00:16:25;;;;;;;23.17;10.60;;;;;;;13.15;58.89;101231.14;124809;1099;104153;-76
2022/09/06 00:18:57;;;;;;;22.73;10.20;;;;;;;13.11;58.87;101229.22;124893;1099;104210;-76
2022/09/06 00:21:30;;;;;;;22.17;9.77;;;;;;;13.09;59.22;101229.16;124867;1099;101904;-77
2022/09/06 00:24:02;;;;;;;22.17;9.70;;;;;;;13.06;59.11;101226.41;124858;1098;104214;-76
2022/09/06 00:26:33;;;;;;;23.43;9.83;;;;;;;13.04;59.22;101227.19;124868;1099;102790;-76
2022/09/06 00:29:05;;;;;;;21.30;10.23;;;;;;;13.01;58.97;101227.98;124865;1099;104320;-75
2022/09/06 00:31:36;;;;;;;25.33;10.53;;;;;;;12.99;59.16;101224.38;124710;1099;110435;-76
2022/09/06 00:34:07;;;;;;;22.83;10.20;;;;;;;12.97;59.09;101226.06;124831;1099;102781;-75
2022/09/06 00:36:39;;;;;;;21.37;10.03;;;;;;;12.97;59.36;101231.34;124789;1099;104256;-76
2022/09/06 00:39:11;;;;;;;21.37;10.33;;;;;;;12.95;59.33;101222.48;124754;1099;104232;-78
2022/09/06 00:41:42;;;;;;;23.43;10.20;;;;;;;12.93;59.46;101226.78;124872;1098;104270;-76
2022/09/06 00:44:13;;;;;;;19.80;9.33;;;;;;;12.92;59.18;101222.38;124774;1099;104172;-77
2022/09/06 00:46:47;;;;;;;21.70;10.53;;;;;;;12.91;59.31;101226.72;124828;1099;104175;-76
2022/09/06 00:49:24;;;;;;;22.73;10.23;;;;;;;12.93;59.45;101235.60;124883;1097;104166;-76
2022/09/06 00:51:59;;;;;;;23.77;10.13;;;;;;;12.89;59.78;101228.41;124950;1099;101869;-76
2022/09/06 00:54:30;;;;;;;22.30;10.67;;;;;;;12.87;60.17;101238.00;124810;1098;102994;-76
2022/09/06 00:57:02;;;;;;;21.90;10.10;;;;;;;12.83;60.13;101241.34;124889;1098;104248;-76
2022/09/06 00:59:37;;;;;;;21.33;10.23;;;;;;;12.80;60.66;101242.97;124898;1099;104150;-76
2022/09/06 01:02:09;;;;;;;22.03;10.50;;;;;;;12.75;60.60;101243.69;124839;1099;102765;-76
2022/09/06 01:04:43;;;;;;;22.80;10.87;;;;;;;12.71;60.68;101238.23;124772;1099;102772;-76
2022/09/06 01:07:28;;;;;;;20.43;10.73;;;;;;;12.68;60.64;101235.48;124782;1098;104240;-76
2022/09/06 01:10:14;;;;;;;26.03;11.27;;;;;;;12.64;61.07;101244.13;124780;1099;104053;-76
2022/09/06 01:12:58;;;;;;;21.30;10.87;;;;;;;12.58;61.12;101240.39;124825;1099;104233;-76
2022/09/06 01:15:40;;;;;;;20.12;10.23;;;;;;;12.56;60.81;101242.08;124843;1099;104602;-76
2022/09/06 01:18:28;;;;;;;24.90;11.15;;;;;;;12.56;60.92;101234.17;124782;1098;104156;-76
2022/09/06 01:21:22;;;;;;;23.87;11.27;;;;;;;12.52;61.30;101237.52;124831;1099;104188;-76
2022/09/06 01:24:27;;;;;;;23.50;11.37;;;;;;;12.48;61.29;101232.98;124696;1099;104328;-76
2022/09/06 01:27:35;;;;;;;25.23;11.37;;;;;;;12.45;61.24;101239.84;124879;1099;104299;-76
2022/09/06 01:30:10;;;;;;;22.83;11.30;;;;;;;12.41;61.92;101237.09;124686;1099;104239;-76
2022/09/06 01:32:48;;;;;;;24.77;11.17;;;;;;;12.38;62.15;101241.34;124821;1099;104175;-76
2022/09/06 01:35:29;;;;;;;21.30;11.05;;;;;;;12.35;62.75;101243.84;124838;1099;102880;-76
2022/09/06 01:38:03;;;;;;;24.13;11.23;;;;;;;12.29;62.13;101240.97;124842;1099;102807;-76
2022/09/06 01:40:35;;;;;;;21.53;10.37;;;;;;;12.28;62.17;101237.45;124789;1099;104236;-76
2022/09/06 01:43:10;;;;;;;25.03;10.97;;;;;;;12.29;62.72;101247.12;124767;1098;104169;-76
2022/09/06 01:45:50;;;;;;;28.40;11.03;;;;;;;12.31;62.40;101241.92;124832;1099;104170;-76
2022/09/06 01:48:32;;;;;;;22.27;10.53;;;;;;;12.32;63.20;101251.62;124872;1099;104211;-76
2022/09/06 01:51:15;;;;;;;20.10;10.60;;;;;;;12.27;62.92;101254.06;124754;1099;104313;-76
2022/09/06 01:54:05;;;;;;;22.87;10.97;;;;;;;12.23;62.65;101247.78;124798;1099;104163;-76
2022/09/06 01:56:45;;;;;;;22.33;11.20;;;;;;;12.20;63.16;101241.48;124819;1099;104205;-76
2022/09/06 01:59:34;;;;;;;23.77;11.60;;;;;;;12.18;62.95;101243.16;124807;1099;104252;-76
2022/09/06 02:02:13;;;;;;;24.60;11.73;;;;;;;12.15;63.04;101241.29;124875;1099;102116;-76
2022/09/06 02:04:51;;;;;;;23.53;11.87;;;;;;;12.14;63.41;101239.52;124805;1099;104329;-76
2022/09/06 02:07:25;;;;;;;22.53;10.97;;;;;;;12.13;63.31;101242.08;124853;1099;104173;-76
2022/09/06 02:10:01;;;;;;;21.60;11.10;;;;;;;12.12;63.61;101241.16;124786;1099;104159;-76
2022/09/06 02:12:36;;;;;;;23.20;10.70;;;;;;;12.09;63.15;101238.44;124849;1099;104189;-76
2022/09/06 02:15:11;;;;;;;22.80;11.23;;;;;;;12.08;63.13;101249.78;124764;1097;104303;-76
2022/09/06 02:17:48;;;;;;;23.30;11.37;;;;;;;12.08;63.47;101248.89;124789;1099;104701;-76
2022/09/06 02:20:24;;;;;;;23.43;10.53;;;;;;;12.08;63.46;101244.52;124805;1098;104179;-76
2022/09/06 02:23:01;;;;;;;21.37;10.57;;;;;;;12.10;64.03;101255.11;124754;1099;104264;-75
2022/09/06 02:25:37;;;;;;;23.07;11.43;;;;;;;12.07;63.96;101255.87;124883;1099;104385;-75
2022/09/06 02:28:10;;;;;;;24.60;11.47;;;;;;;12.05;64.19;101247.02;124816;1099;104421;-76
2022/09/06 02:30:45;;;;;;;23.93;11.33;;;;;;;12.04;64.38;101251.40;124811;1099;104309;-76
2022/09/06 02:33:19;;;;;;;22.03;11.17;;;;;;;12.01;64.07;101243.37;124766;1098;104238;-76
2022/09/06 02:35:52;;;;;;;22.67;10.97;;;;;;;12.02;64.46;101244.27;124797;1099;110859;-77
2022/09/06 02:38:26;;;;;;;23.50;11.30;;;;;;;12.01;64.18;101243.37;124870;1099;102294;-75
2022/09/06 02:40:58;;;;;;;22.90;11.57;;;;;;;12.02;64.53;101249.53;125283;1099;104166;-76
2022/09/06 02:43:29;;;;;;;22.70;11.30;;;;;;;12.00;64.17;101246.83;124800;1097;104249;-76
2022/09/06 02:46:00;;;;;;;21.87;9.97;;;;;;;11.98;64.17;101247.59;124798;1099;104149;-76
2022/09/06 02:48:31;;;;;;;24.13;10.63;;;;;;;11.96;64.31;101251.90;124793;1099;104229;-77
2022/09/06 02:51:06;;;;;;;22.90;11.43;;;;;;;11.96;64.33;101249.27;124847;1097;104246;-76
2022/09/06 02:53:38;;;;;;;22.63;11.60;;;;;;;11.95;64.30;101245.75;124810;1099;104153;-76
2022/09/06 02:56:10;;;;;;;21.83;10.97;;;;;;;11.97;64.90;101245.81;124822;1099;108111;-76
2022/09/06 02:58:41;;;;;;;26.00;11.90;;;;;;;11.99;65.02;101252.03;124888;1099;104121;-76
2022/09/06 03:01:12;;;;;;;25.23;11.77;;;;;;;11.97;64.72;101243.19;124745;1099;104249;-77
2022/09/06 03:03:45;;;;;;;22.40;11.13;;;;;;;11.95;64.92;101245.75;124829;1099;104256;-76
2022/09/06 03:06:17;;;;;;;23.83;11.37;;;;;;;11.95;65.00;101244.83;124758;1098;104147;-75
2022/09/06 03:08:48;;;;;;;21.07;10.77;;;;;;;11.96;65.02;101231.75;124790;1099;104303;-76
2022/09/06 03:11:19;;;;;;;22.63;11.37;;;;;;;11.98;65.02;101237.07;124800;1100;104229;-76
2022/09/06 03:13:51;;;;;;;22.83;11.20;;;;;;;12.00;65.37;101244.20;124829;1099;104239;-75
2022/09/06 03:16:22;;;;;;;22.93;11.80;;;;;;;12.00;65.54;101243.31;124911;1097;101812;-75
2022/09/06 03:18:54;;;;;;;22.37;10.80;;;;;;;11.96;65.83;101250.16;124851;1099;103184;-76
2022/09/06 03:21:26;;;;;;;23.70;11.47;;;;;;;11.93;65.45;101265.81;124892;1099;102819;-76
2022/09/06 03:23:58;;;;;;;21.07;11.07;;;;;;;11.90;65.36;101264.75;124848;1097;104169;-76
2022/09/06 03:26:32;;;;;;;24.37;11.67;;;;;;;11.86;65.52;101267.25;124869;1099;102791;-76
2022/09/06 03:29:05;;;;;;;24.07;11.50;;;;;;;11.82;65.92;101275.84;124783;1099;104252;-76
2022/09/06 03:31:36;;;;;;;23.77;11.53;;;;;;;11.82;65.68;101272.31;124804;1098;104325;-77
2022/09/06 03:34:07;;;;;;;23.27;11.67;;;;;;;11.82;66.10;101278.46;124833;1099;104060;-76
2022/09/06 03:36:39;;;;;;;23.70;10.80;;;;;;;11.80;65.93;101280.14;124846;1099;102774;-76
2022/09/06 03:39:10;;;;;;;23.70;11.27;;;;;;;11.78;65.97;101280.89;124829;1099;102755;-76
2022/09/06 03:41:41;;;;;;;25.17;11.90;;;;;;;11.77;66.21;101284.37;124816;1099;101889;-76
2022/09/06 03:44:14;;;;;;;24.50;11.73;;;;;;;11.78;66.27;101284.44;124772;1099;104181;-77
2022/09/06 03:46:45;;;;;;;23.43;11.73;;;;;;;11.80;66.12;101279.25;124727;1099;104316;-77
2022/09/06 03:49:16;;;;;;;30.13;12.20;;;;;;;11.84;66.39;101282.08;124800;1097;104293;-76
2022/09/06 03:51:48;;;;;;;25.60;11.10;;;;;;;11.87;66.30;101279.58;124856;1099;102733;-76
2022/09/06 03:54:19;;;;;;;27.10;11.77;;;;;;;11.91;66.11;101275.34;126072;1098;104277;-77
2022/09/06 03:56:51;;;;;;;29.60;12.00;;;;;;;11.95;66.42;101277.31;124810;1099;101937;-76
2022/09/06 03:59:22;;;;;;;30.90;11.73;;;;;;;11.99;66.51;101284.48;124751;1099;104095;-77
2022/09/06 04:01:55;;;;;;;28.00;11.63;;;;;;;12.01;66.61;101292.44;124897;1098;104198;-77
2022/09/06 04:04:26;;;;;;;31.67;12.33;;;;;;;12.02;66.48;101286.35;124882;1098;104165;-77
2022/09/06 04:06:58;;;;;;;23.27;11.53;;;;;;;12.05;66.84;101291.74;124874;1099;104198;-77
2022/09/06 04:09:29;;;;;;;23.33;11.87;;;;;;;12.05;66.63;101284.73;124815;1099;104153;-77
2022/09/06 04:12:00;;;;;;;24.00;11.90;;;;;;;12.08;66.70;101289.24;124873;1098;103571;-77
2022/09/06 04:14:31;;;;;;;25.67;12.27;;;;;;;12.09;66.92;101293.68;124754;1099;104229;-77
2022/09/06 04:17:06;;;;;;;26.60;12.57;;;;;;;12.11;67.10;101275.33;124828;1099;101912;-77
2022/09/06 04:19:37;;;;;;;23.93;10.97;;;;;;;12.12;66.83;101291.14;124896;1097;104236;-77
2022/09/06 04:22:08;;;;;;;22.63;11.67;;;;;;;12.13;67.26;101300.84;124851;1099;104217;-77
2022/09/06 04:24:39;;;;;;;24.33;12.00;;;;;;;12.16;66.91;101284.30;124779;1099;102354;-77
2022/09/06 04:27:10;;;;;;;23.87;11.60;;;;;;;12.17;67.20;101284.37;124781;1099;102827;-78
2022/09/06 04:29:42;;;;;;;24.23;11.40;;;;;;;12.20;67.23;101283.58;124897;1099;104303;-77
2022/09/06 04:32:13;;;;;;;24.20;11.60;;;;;;;12.23;67.28;101291.59;124907;1099;102228;-77
2022/09/06 04:34:45;;;;;;;27.30;13.10;;;;;;;12.22;67.44;101285.45;124871;1099;101937;-78
2022/09/06 04:37:18;;;;;;;25.17;12.27;;;;;;;12.20;67.50;101287.13;124781;1099;104232;-77
2022/09/06 04:39:50;;;;;;;23.73;11.77;;;;;;;12.21;67.25;101280.13;124833;1099;104310;-78
2022/09/06 04:42:21;;;;;;;23.93;12.30;;;;;;;12.25;67.36;101279.42;124816;1099;104188;-77
2022/09/06 04:44:52;;;;;;;24.63;11.50;;;;;;;12.30;67.79;101277.87;124856;1098;104201;-77
2022/09/06 04:47:24;;;;;;;22.97;12.10;;;;;;;12.38;67.58;101280.81;124807;1099;104156;-78
2022/09/06 04:49:55;;;;;;;24.73;11.70;;;;;;;12.48;67.95;101288.27;124757;1099;104251;-78
2022/09/06 04:52:27;;;;;;;25.00;12.23;;;;;;;12.54;67.58;101287.59;124851;1099;104313;-78
2022/09/06 04:55:00;;;;;;;28.87;12.40;;;;;;;12.56;67.68;101285.95;124767;1099;104296;-77
2022/09/06 04:57:30;;;;;;;;;;;;;;;12.57;67.82;101287.72;124956;1099;104189;-78
2022/09/06 05:00:02;;;;;;;27.23;12.37;;;;;;;12.64;67.76;101283.62;124772;1099;104160;-77
2022/09/06 05:02:33;;;;;;;22.87;11.90;;;;;;;12.71;68.12;101288.27;124794;1099;104447;-77
2022/09/06 05:05:08;;;;;;;22.87;11.90;;;;;;;12.72;67.82;101283.06;124847;1098;104223;-78
2022/09/06 05:07:39;;;;;;;24.50;12.33;;;;;;;12.74;67.80;101280.49;124834;1099;104166;-78
2022/09/06 05:10:11;;;;;;;29.47;12.37;;;;;;;12.80;67.83;101285.11;124813;1099;104226;-77
2022/09/06 05:12:42;;;;;;;26.60;12.57;;;;;;;12.81;68.10;101282.54;124761;1099;104163;-77
2022/09/06 05:15:16;;;;;;;25.23;11.80;;;;;;;12.82;67.84;101283.42;124754;1099;104156;-77
2022/09/06 05:17:47;;;;;;;25.63;12.33;;;;;;;12.84;68.02;101287.00;124817;1099;104647;-77
2022/09/06 05:20:18;;;;;;;23.17;11.63;;;;;;;12.85;68.07;101289.70;124763;1099;102768;-77
2022/09/06 05:22:54;;;;;;;30.33;12.90;;;;;;;12.89;67.86;101286.36;124799;1099;104169;-78
2022/09/06 05:25:26;;;;;;;24.90;12.10;;;;;;;12.93;68.11;101279.46;124906;1098;104230;-78
2022/09/06 05:27:58;;;;;;;26.20;12.10;;;;;;;12.96;68.23;101284.84;124755;1099;104235;-77
2022/09/06 05:30:30;;;;;;;27.30;12.00;;;;;;;13.02;68.02;101282.45;124858;1099;104195;-79
2022/09/06 05:33:21;;;;;;;29.90;12.13;;;;;;;13.10;68.32;101282.74;124884;1099;102839;-77
2022/09/06 05:35:50;;;;;;;;;;;;;;;13.13;68.09;101278.52;124894;1098;102768;-79
2022/09/06 05:38:25;;;;;;;23.83;11.63;;;;;;;13.17;67.96;101282.15;124785;1099;104226;-78
2022/09/06 05:40:57;;;;;;;25.27;12.37;;;;;;;13.23;67.49;101281.45;124808;1099;102937;-79
2022/09/06 05:43:29;;;;;;;30.60;11.73;;;;;;;13.30;68.06;101287.02;124852;1099;104153;-78
2022/09/06 05:46:00;;;;;;;29.37;12.20;;;;;;;13.42;67.86;101286.62;126110;1096;102283;-78
2022/09/06 05:48:32;;;;;;;27.20;11.57;;;;;;;13.52;67.76;101284.32;124776;1099;104204;-78
2022/09/06 05:51:05;;;;;;;23.70;11.03;;;;;;;13.61;67.59;101284.66;124795;1099;104191;-77
2022/09/06 05:53:40;;;;;;;26.10;10.97;;;;;;;13.74;67.74;101281.59;124855;1099;104211;-78
2022/09/06 05:56:13;;;;;;;21.03;10.53;;;;;;;13.90;67.55;101285.69;125634;1098;104048;-78
2022/09/06 05:58:47;;;;;;;24.30;10.97;;;;;;;14.08;67.86;101284.52;124869;1099;104176;-78
2022/09/06 06:01:24;;;;;;;23.57;10.60;;;;;;;14.29;67.57;101279.03;125678;1098;104139;-79
2022/09/06 06:04:04;;;;;;;21.53;11.07;;;;;;;14.47;67.30;101278.75;125745;1099;103093;-80
2022/09/06 06:06:36;;;;;;;24.20;10.13;;;;;;;14.61;66.46;101273.95;125713;1099;104319;-80
2022/09/06 06:09:14;;;;;;;22.67;8.93;;;;;;;14.76;66.34;101273.51;126277;1098;104178;-80
2022/09/06 06:11:58;;;;;;;21.57;9.47;;;;;;;14.93;67.06;101274.95;125687;1099;104156;-79
2022/09/06 06:14:30;;;;;;;17.63;8.23;;;;;;;15.11;65.79;101287.80;124882;1099;101967;-80
2022/09/06 06:17:28;;;;;;;21.03;9.13;;;;;;;15.24;66.53;101279.39;125714;1099;104247;-80
2022/09/06 06:20:07;;;;;;;20.27;9.17;;;;;;;15.37;66.12;101275.34;125678;1099;104262;-79
2022/09/06 06:22:55;;;;;;;22.63;8.93;;;;;;;15.47;65.61;101281.78;125617;1099;104163;-80
2022/09/06 06:25:29;;;;;;;19.63;8.13;;;;;;;15.55;65.59;101281.98;125396;1099;104278;-80
2022/09/06 06:28:02;;;;;;;22.10;8.37;;;;;;;15.65;64.74;101284.05;125111;1099;102832;-80
2022/09/06 06:30:46;;;;;;;20.33;8.43;;;;;;;15.73;63.95;101273.67;125745;1099;117803;-79
2022/09/06 06:33:17;;;;;;;16.55;7.37;;;;;;;15.79;63.78;101274.77;125666;1099;104188;-79
2022/09/06 06:36:01;;;;;;;17.90;7.60;;;;;;;15.85;63.47;101278.41;125895;1097;104169;-79
2022/09/06 06:38:36;;;;;;;20.80;8.30;;;;;;;15.91;64.29;101279.50;125776;1099;101804;-79
2022/09/06 06:41:15;;;;;;;22.43;7.60;;;;;;;15.92;63.46;101269.80;124909;1099;102171;-79
2022/09/06 06:43:51;;;;;;;16.03;7.30;;;;;;;16.05;63.66;101282.50;125677;1098;104177;-78
2022/09/06 06:46:26;;;;;;;19.73;8.33;;;;;;;16.11;63.52;101282.66;124839;1097;101905;-78
2022/09/06 06:49:03;;;;;;;18.07;7.43;;;;;;;16.11;62.07;101281.75;125678;1099;104179;-79
2022/09/06 06:51:41;;;;;;;19.33;7.53;;;;;;;16.13;62.92;101280.94;125717;1099;104159;-79
2022/09/06 06:54:19;;;;;;;22.63;8.33;;;;;;;16.18;62.34;101287.23;125705;1099;104220;-78
2022/09/06 06:57:00;;;;;;;22.17;8.05;;;;;;;16.24;61.70;101283.86;125682;1099;104194;-79
2022/09/06 07:02:49;;;;;;;22.50;8.28;;;;;;;16.47;62.42;101296.75;125715;1099;104312;-79
2022/09/06 07:05:31;;;;;;;17.07;7.87;;;;;;;16.57;62.02;101293.48;126471;1098;102529;-79
2022/09/06 07:08:09;;;;;;;19.40;8.40;;;;;;;16.70;61.30;101297.30;125747;1098;104252;-79
2022/09/06 07:10:46;;;;;;;23.27;8.60;;;;;;;16.85;61.88;101292.36;124998;1097;104279;-79
2022/09/06 07:13:35;;;;;;;20.03;8.50;;;;;;;16.98;61.27;101295.32;125653;1098;102498;-78
2022/09/06 07:16:18;;;;;;;25.90;7.77;;;;;;;17.06;60.41;101289.34;125651;1099;104265;-79
2022/09/06 07:19:01;;;;;;;19.77;7.83;;;;;;;17.22;60.53;101290.55;125714;1099;104082;-79
2022/09/06 07:21:37;;;;;;;17.27;7.17;;;;;;;17.37;60.89;101291.72;124951;1099;102896;-79
2022/09/06 07:24:13;;;;;;;21.57;7.00;;;;;;;17.52;59.48;101294.69;126214;1097;102234;-79
2022/09/06 07:27:10;;;;;;;17.90;7.13;;;;;;;17.63;59.37;101291.36;126206;1098;104057;-79
2022/09/06 07:29:45;;;;;;;20.00;7.37;;;;;;;17.78;58.59;101291.66;124923;1099;102820;-80
2022/09/06 07:32:21;;;;;;;16.30;6.57;;;;;;;17.90;58.58;101291.92;125026;1099;104204;-79
2022/09/06 07:35:01;;;;;;;17.07;6.63;;;;;;;18.06;57.53;101289.51;126257;1097;102345;-80
2022/09/06 07:40:37;;;;;;;14.03;6.10;;;;;;;18.42;56.89;101291.02;125259;1099;103186;-81
2022/09/06 07:43:18;;;;;;;15.10;6.50;;;;;;;18.54;55.97;101288.53;124991;1099;102906;-81
2022/09/06 07:46:07;;;;;;;14.93;6.20;;;;;;;18.59;56.37;101285.94;126592;1097;104153;-80
2022/09/06 07:49:00;;;;;;;17.63;6.67;;;;;;;18.74;55.46;101282.63;126209;1099;104198;-81
2022/09/06 07:51:47;;;;;;;15.30;6.90;;;;;;;18.98;55.32;101291.00;126334;1099;104335;-81
2022/09/06 07:54:33;;;;;;;15.03;6.97;;;;;;;18.99;54.39;101295.42;125744;1099;103725;-82
2022/09/06 07:57:18;;;;;;;19.63;7.50;;;;;;;18.97;54.26;101291.86;125821;1099;102364;-81
2022/09/06 07:59:53;;;;;;;18.00;7.20;;;;;;;18.98;54.16;101291.00;125718;1099;104714;-81
2022/09/06 08:02:47;;;;;;;16.47;7.33;;;;;;;19.02;53.84;101291.92;125703;1099;104171;-82
2022/09/06 08:05:24;;;;;;;16.63;6.80;;;;;;;19.07;52.44;101299.96;125473;1099;104458;-82
2022/09/06 08:08:06;;;;;;;18.10;7.10;;;;;;;19.04;51.52;101298.14;125704;1099;104255;-81
2022/09/06 08:10:39;;;;;;;19.90;7.07;;;;;;;19.07;52.74;101300.84;125699;1099;104287;-81
2022/09/06 08:13:11;;;;;;;18.13;7.23;;;;;;;19.15;52.47;101284.98;125766;1099;104185;-80
2022/09/06 08:15:44;;;;;;;19.57;6.63;;;;;;;19.24;52.38;101287.77;125699;1099;104149;-80
2022/09/06 08:18:19;;;;;;;17.20;6.03;;;;;;;19.24;50.72;101293.09;125682;1099;104156;-80
2022/09/06 08:21:01;;;;;;;15.33;5.77;;;;;;;19.40;51.60;101288.88;125589;1099;104229;-80
2022/09/06 08:23:47;;;;;;;13.53;5.27;;;;;;;19.50;50.32;101287.20;125689;1098;104164;-81
2022/09/06 08:26:36;;;;;;;11.50;5.10;;;;;;;19.56;49.38;101290.82;125718;1099;104182;-80
2022/09/06 08:29:45;;;;;;;16.60;5.03;;;;;;;19.61;49.93;101284.67;125763;1099;104066;-80
2022/09/06 08:32:52;;;;;;;12.97;5.27;;;;;;;19.58;48.35;101290.84;125687;1099;102323;-80
2022/09/06 08:35:27;;;;;;;10.97;4.77;;;;;;;19.55;49.50;101282.81;125659;1099;102903;-81
2022/09/06 08:38:04;;;;;;;11.63;4.70;;;;;;;19.59;48.64;101289.97;126120;1097;102740;-80
2022/09/06 08:40:47;;;;;;;12.43;5.10;;;;;;;19.59;48.13;101276.66;125689;1099;105616;-80
2022/09/06 08:43:39;;;;;;;14.47;4.93;;;;;;;19.71;48.78;101282.13;125731;1099;102450;-81
2022/09/06 08:46:36;;;;;;;10.07;3.90;;;;;;;19.81;47.21;101266.27;125126;1099;104368;-82
2022/09/06 08:49:16;;;;;;;6.23;3.23;;;;;;;19.90;46.23;101266.36;126234;1098;104185;-80
2022/09/06 08:52:12;;;;;;;8.53;3.80;;;;;;;20.02;46.06;101266.45;124963;1099;102220;-80
2022/09/06 08:54:58;;;;;;;7.73;3.70;;;;;;;20.13;46.00;101261.22;126116;1098;104226;-80
2022/09/06 08:57:52;;;;;;;8.77;3.60;;;;;;;20.28;45.56;101263.13;124883;1099;104204;-78
2022/09/06 09:00:28;;;;;;;10.10;3.60;;;;;;;20.38;45.03;101254.33;125733;1099;104459;-79
2022/09/06 09:03:10;;;;;;;7.55;3.27;;;;;;;20.44;44.28;101259.70;125356;1099;104165;-80
2022/09/06 09:05:43;;;;;;;9.00;3.40;;;;;;;20.30;43.20;101261.35;125712;1099;104281;-79
2022/09/06 09:08:24;;;;;;;10.23;3.55;;;;;;;20.31;44.19;101249.83;125703;1099;102235;-80
2022/09/06 09:11:15;;;;;;;8.27;3.40;;;;;;;20.27;42.20;101245.34;125742;1098;104255;-80
2022/09/06 09:14:07;;;;;;;7.23;3.47;;;;;;;20.44;42.58;101242.80;125639;1099;104185;-79
2022/09/06 09:16:54;;;;;;;6.70;3.53;;;;;;;20.53;42.36;101250.86;126314;1099;104073;-80
2022/09/06 09:19:36;;;;;;;6.33;3.13;;;;;;;20.51;37.85;101255.30;125576;1099;104235;-79
2022/09/06 09:22:22;;;;;;;8.90;3.73;;;;;;;20.53;41.27;101248.20;125695;1099;104159;-80
2022/09/06 09:28:39;;;;;;;7.40;3.87;;;;;;;20.42;40.59;101242.79;126820;1098;102363;-80
2022/09/06 09:31:48;;;;;;;8.67;3.70;;;;;;;20.58;40.90;101245.56;125033;1099;104188;-79
2022/09/06 09:34:37;;;;;;;8.57;4.03;;;;;;;20.73;40.65;101250.14;124988;1099;104159;-80
2022/09/06 09:37:24;;;;;;;8.40;3.80;;;;;;;20.69;40.82;101245.66;126701;1098;102239;-79
2022/09/06 09:40:03;;;;;;;13.20;4.30;;;;;;;20.72;41.14;101245.68;125868;1097;102759;-79
2022/09/06 09:42:40;;;;;;;9.67;4.07;;;;;;;20.83;41.28;101236.87;125051;1099;104163;-79
2022/09/06 09:45:48;;;;;;;9.80;3.77;;;;;;;20.88;40.88;101233.31;126215;1098;102419;-80
2022/09/06 09:48:33;;;;;;;7.53;3.73;;;;;;;20.87;39.71;101228.88;127339;1097;101622;-80
2022/09/06 09:51:35;;;;;;;9.53;4.40;;;;;;;20.78;39.89;101230.59;125720;1099;104159;-82
2022/09/06 09:54:33;;;;;;;11.63;4.10;;;;;;;20.71;39.78;101228.80;125077;1099;102654;-80
2022/09/06 09:57:14;;;;;;;16.37;5.07;;;;;;;20.77;39.58;101231.50;125781;1099;102347;-79
2022/09/06 09:59:56;;;;;;;10.93;4.60;;;;;;;20.83;39.27;101217.28;125418;1099;104220;-78
2022/09/06 10:02:38;;;;;;;10.75;4.45;;;;;;;20.80;38.13;101223.52;124850;1099;102866;-78
2022/09/06 10:05:21;;;;;;;9.73;4.17;;;;;;;20.85;38.88;101227.96;124832;1099;110744;-78
2022/09/06 10:07:55;;;;;;;10.53;3.97;;;;;;;20.92;39.35;101235.12;125014;1099;104255;-78
2022/09/06 10:10:33;;;;;;;7.37;3.73;;;;;;;20.97;36.02;101241.36;125147;1099;103091;-79
2022/09/06 10:13:21;;;;;;;10.33;4.23;;;;;;;20.78;37.96;101243.05;124964;1099;102798;-79
2022/09/06 10:15:54;;;;;;;8.33;4.13;;;;;;;20.77;38.41;101242.17;124882;1099;104271;-79
2022/09/06 10:18:36;;;;;;;6.60;3.57;;;;;;;20.88;38.65;101235.98;124943;1099;104160;-78
2022/09/06 10:21:16;;;;;;;11.43;4.23;;;;;;;20.98;39.01;101232.48;124904;1099;104210;-78
2022/09/06 10:24:05;;;;;;;10.37;4.50;;;;;;;20.98;38.49;101230.69;124787;1099;103316;-78
2022/09/06 10:26:48;;;;;;;10.30;4.13;;;;;;;21.20;38.47;101241.45;124893;1099;104174;-78
2022/09/06 10:29:32;;;;;;;10.00;4.10;;;;;;;21.34;38.53;101247.73;124928;1099;104198;-78
2022/09/06 10:32:16;;;;;;;10.32;3.40;;;;;;;21.25;37.21;101244.14;124936;1099;104225;-78
2022/09/06 10:35:12;;;;;;;7.23;3.60;;;;;;;21.26;36.65;101236.14;124929;1098;104228;-78
2022/09/06 10:37:50;;;;;;;7.33;3.47;;;;;;;21.43;36.17;101232.65;124808;1099;102967;-79
2022/09/06 10:40:34;;;;;;;9.80;3.90;;;;;;;21.35;37.82;101235.30;124841;1099;104214;-79
2022/09/06 10:43:14;;;;;;;8.97;3.60;;;;;;;21.26;36.91;101240.60;124831;1099;104175;-79
2022/09/06 10:45:57;;;;;;;9.97;3.97;;;;;;;21.35;36.83;101229.95;125853;1099;111932;-79
2022/09/06 10:48:32;;;;;;;9.30;3.80;;;;;;;21.44;37.08;101224.64;125936;1099;102487;-78
2022/09/06 10:51:17;;;;;;;10.73;3.63;;;;;;;21.62;37.18;101225.59;124862;1099;103545;-79
2022/09/06 10:53:55;;;;;;;7.77;3.77;;;;;;;21.67;35.71;101227.36;124891;1099;104159;-79
2022/09/06 10:56:32;;;;;;;7.77;3.77;;;;;;;21.84;36.44;101231.84;124953;1099;104208;-78
2022/09/06 10:59:21;;;;;;;9.53;3.70;;;;;;;21.85;36.65;101226.50;124940;1099;104230;-79
2022/09/06 11:02:10;;;;;;;16.40;4.50;;;;;;;21.90;35.52;101219.38;125674;1099;104294;-78
2022/09/06 11:04:49;;;;;;;9.23;4.23;;;;;;;21.87;35.53;101218.48;125546;1098;104160;-81
2022/09/06 11:07:42;;;;;;;9.23;3.83;;;;;;;21.82;35.78;101213.14;125657;1099;104326;-78
2022/09/06 11:10:39;;;;;;;10.40;4.27;;;;;;;21.93;36.99;101223.84;125700;1099;104169;-79
2022/09/06 11:13:16;;;;;;;12.07;4.93;;;;;;;21.99;36.09;101221.17;124873;1099;103007;-80
2022/09/06 11:15:55;;;;;;;12.13;4.17;;;;;;;21.96;36.23;101217.61;125091;1098;104287;-80
2022/09/06 11:18:39;;;;;;;9.20;3.80;;;;;;;21.81;36.45;101223.83;125860;1098;103390;-81
2022/09/06 11:21:39;;;;;;;9.37;4.20;;;;;;;21.68;36.59;101223.81;125849;1099;104473;-80
2022/09/06 11:24:25;;;;;;;10.33;4.30;;;;;;;21.68;36.73;101225.60;125023;1099;104159;-79
2022/09/06 11:27:06;;;;;;;10.03;4.43;;;;;;;21.67;36.77;101226.48;124949;1099;110775;-80
2022/09/06 11:29:55;;;;;;;10.85;4.25;;;;;;;21.60;36.29;101216.66;124913;1099;104201;-80
2022/09/06 11:33:05;;;;;;;10.73;4.23;;;;;;;21.51;36.23;101212.22;124993;1099;103021;-81
2022/09/06 11:35:47;;;;;;;10.10;4.70;;;;;;;21.44;36.24;101205.04;125401;1099;104256;-79
2022/09/06 11:38:27;;;;;;;12.57;4.63;;;;;;;21.64;36.52;101216.67;124886;1099;102784;-79
2022/09/06 11:41:06;;;;;;;10.27;4.40;;;;;;;21.89;36.75;101208.69;124958;1099;104149;-80
2022/09/06 11:43:50;;;;;;;8.07;4.20;;;;;;;21.87;36.63;101207.80;125334;1099;101883;-81
2022/09/06 11:46:59;;;;;;;9.10;4.70;;;;;;;21.79;35.95;101199.78;126379;1098;102833;-80
2022/09/06 11:49:40;;;;;;;9.70;4.20;;;;;;;21.75;36.08;101195.32;125363;1098;104246;-79
2022/09/06 11:52:58;;;;;;;9.03;4.30;;;;;;;21.88;36.70;101186.43;124892;1098;104179;-79
2022/09/06 11:55:46;;;;;;;10.67;4.53;;;;;;;22.00;36.95;101181.97;125198;1098;104225;-79
2022/09/06 11:58:34;;;;;;;15.97;4.97;;;;;;;22.05;36.99;101180.20;126180;1098;102772;-79
2022/09/06 12:01:41;;;;;;;7.73;4.07;;;;;;;22.04;36.06;101181.97;124894;1099;104153;-80